sensor_id;sensor_type;location;lat;lon;timestamp;P1;durP1;ratioP1;P2;durP2;ratioP2
15358;SDS011;7779;49.596;11.070;2022-08-21T00:00:32;4.07;;;3.67;;
15358;SDS011;7779;49.596;11.070;2022-08-21T00:03:00;6.93;;;3.37;;
15358;SDS011;7779;49.596;11.070;2022-08-21T00:05:30;3.60;;;3.30;;
15358;SDS011;7779;49.596;11.070;2022-08-21T00:07:58;3.70;;;3.30;;
15358;SDS011;7779;49.596;11.070;2022-08-21T00:10:24;4.07;;;3.33;;
15358;SDS011;7779;49.596;11.070;2022-08-21T00:12:51;4.47;;;3.70;;
15358;SDS011;7779;49.596;11.070;2022-08-21T00:15:19;3.57;;;3.20;;
15358;SDS011;7779;49.596;11.070;2022-08-21T00:17:51;4.10;;;3.57;;
15358;SDS011;7779;49.596;11.070;2022-08-21T00:20:19;3.70;;;3.00;;
15358;SDS011;7779;49.596;11.070;2022-08-21T00:22:45;4.17;;;3.17;;
15358;SDS011;7779;49.596;11.070;2022-08-21T00:25:12;3.27;;;2.97;;
15358;SDS011;7779;49.596;11.070;2022-08-21T00:27:40;3.80;;;3.43;;
15358;SDS011;7779;49.596;11.070;2022-08-21T00:30:08;3.43;;;3.07;;
15358;SDS011;7779;49.596;11.070;2022-08-21T00:32:37;3.33;;;3.03;;
15358;SDS011;7779;49.596;11.070;2022-08-21T00:35:05;3.90;;;3.17;;
15358;SDS011;7779;49.596;11.070;2022-08-21T00:37:37;3.90;;;3.50;;
15358;SDS011;7779;49.596;11.070;2022-08-21T00:40:05;3.90;;;3.50;;
15358;SDS011;7779;49.596;11.070;2022-08-21T00:42:36;3.83;;;3.40;;
15358;SDS011;7779;49.596;11.070;2022-08-21T00:45:03;3.70;;;3.13;;
15358;SDS011;7779;49.596;11.070;2022-08-21T00:47:32;3.53;;;3.23;;
15358;SDS011;7779;49.596;11.070;2022-08-21T00:49:58;3.33;;;3.03;;
15358;SDS011;7779;49.596;11.070;2022-08-21T00:52:25;3.70;;;3.40;;
15358;SDS011;7779;49.596;11.070;2022-08-21T00:54:55;3.73;;;3.27;;
15358;SDS011;7779;49.596;11.070;2022-08-21T00:57:27;4.67;;;3.30;;
15358;SDS011;7779;49.596;11.070;2022-08-21T00:59:59;3.97;;;3.20;;
15358;SDS011;7779;49.596;11.070;2022-08-21T01:02:32;5.17;;;3.40;;
15358;SDS011;7779;49.596;11.070;2022-08-21T01:04:58;3.57;;;3.27;;
15358;SDS011;7779;49.596;11.070;2022-08-21T01:07:24;4.80;;;3.50;;
15358;SDS011;7779;49.596;11.070;2022-08-21T01:09:51;4.23;;;3.27;;
15358;SDS011;7779;49.596;11.070;2022-08-21T01:12:17;5.07;;;3.60;;
15358;SDS011;7779;49.596;11.070;2022-08-21T01:14:43;4.13;;;3.73;;
15358;SDS011;7779;49.596;11.070;2022-08-21T01:17:11;3.50;;;3.20;;
15358;SDS011;7779;49.596;11.070;2022-08-21T01:19:40;3.33;;;3.03;;
15358;SDS011;7779;49.596;11.070;2022-08-21T01:22:07;3.70;;;3.10;;
15358;SDS011;7779;49.596;11.070;2022-08-21T01:24:33;3.97;;;3.10;;
15358;SDS011;7779;49.596;11.070;2022-08-21T01:26:59;3.33;;;3.03;;
15358;SDS011;7779;49.596;11.070;2022-08-21T01:32:14;3.57;;;3.27;;
15358;SDS011;7779;49.596;11.070;2022-08-21T01:34:44;3.23;;;2.93;;
15358;SDS011;7779;49.596;11.070;2022-08-21T01:37:13;3.20;;;2.87;;
15358;SDS011;7779;49.596;11.070;2022-08-21T01:39:41;3.57;;;3.23;;
15358;SDS011;7779;49.596;11.070;2022-08-21T01:42:08;3.20;;;3.00;;
15358;SDS011;7779;49.596;11.070;2022-08-21T01:44:34;3.10;;;2.80;;
15358;SDS011;7779;49.596;11.070;2022-08-21T01:47:03;3.80;;;3.40;;
15358;SDS011;7779;49.596;11.070;2022-08-21T01:49:32;4.60;;;3.30;;
15358;SDS011;7779;49.596;11.070;2022-08-21T01:51:59;3.50;;;3.20;;
15358;SDS011;7779;49.596;11.070;2022-08-21T01:54:26;3.90;;;3.60;;
15358;SDS011;7779;49.596;11.070;2022-08-21T01:56:52;4.20;;;3.73;;
15358;SDS011;7779;49.596;11.070;2022-08-21T01:59:20;4.00;;;3.60;;
15358;SDS011;7779;49.596;11.070;2022-08-21T02:01:48;3.67;;;3.20;;
15358;SDS011;7779;49.596;11.070;2022-08-21T02:04:15;4.13;;;3.20;;
15358;SDS011;7779;49.596;11.070;2022-08-21T02:06:41;3.40;;;3.10;;
15358;SDS011;7779;49.596;11.070;2022-08-21T02:09:08;3.43;;;3.13;;
15358;SDS011;7779;49.596;11.070;2022-08-21T02:11:36;3.50;;;3.20;;
15358;SDS011;7779;49.596;11.070;2022-08-21T02:14:06;3.87;;;2.90;;
15358;SDS011;7779;49.596;11.070;2022-08-21T02:16:37;3.37;;;3.17;;
15358;SDS011;7779;49.596;11.070;2022-08-21T02:19:04;2.90;;;2.70;;
15358;SDS011;7779;49.596;11.070;2022-08-21T02:21:31;3.77;;;3.37;;
15358;SDS011;7779;49.596;11.070;2022-08-21T02:23:56;3.63;;;3.33;;
15358;SDS011;7779;49.596;11.070;2022-08-21T02:26:22;3.33;;;3.13;;
15358;SDS011;7779;49.596;11.070;2022-08-21T02:28:48;3.60;;;3.30;;
15358;SDS011;7779;49.596;11.070;2022-08-21T02:31:14;4.43;;;4.03;;
15358;SDS011;7779;49.596;11.070;2022-08-21T02:33:41;4.90;;;3.40;;
15358;SDS011;7779;49.596;11.070;2022-08-21T02:36:07;3.63;;;3.33;;
15358;SDS011;7779;49.596;11.070;2022-08-21T02:38:36;3.70;;;3.40;;
15358;SDS011;7779;49.596;11.070;2022-08-21T02:41:08;5.70;;;3.60;;
15358;SDS011;7779;49.596;11.070;2022-08-21T02:43:41;3.80;;;3.50;;
15358;SDS011;7779;49.596;11.070;2022-08-21T02:46:08;4.13;;;3.73;;
15358;SDS011;7779;49.596;11.070;2022-08-21T02:48:37;4.40;;;4.00;;
15358;SDS011;7779;49.596;11.070;2022-08-21T02:51:04;4.87;;;3.93;;
15358;SDS011;7779;49.596;11.070;2022-08-21T02:53:38;4.60;;;3.70;;
15358;SDS011;7779;49.596;11.070;2022-08-21T02:56:06;4.27;;;3.87;;
15358;SDS011;7779;49.596;11.070;2022-08-21T02:58:37;3.90;;;3.60;;
15358;SDS011;7779;49.596;11.070;2022-08-21T03:01:10;6.13;;;4.00;;
15358;SDS011;7779;49.596;11.070;2022-08-21T03:03:38;5.90;;;4.13;;
15358;SDS011;7779;49.596;11.070;2022-08-21T03:06:07;4.40;;;4.00;;
15358;SDS011;7779;49.596;11.070;2022-08-21T03:08:35;4.53;;;4.13;;
15358;SDS011;7779;49.596;11.070;2022-08-21T03:11:02;4.70;;;4.30;;
15358;SDS011;7779;49.596;11.070;2022-08-21T03:13:29;4.77;;;4.37;;
15358;SDS011;7779;49.596;11.070;2022-08-21T03:15:55;4.67;;;3.80;;
15358;SDS011;7779;49.596;11.070;2022-08-21T03:18:21;4.50;;;4.10;;
15358;SDS011;7779;49.596;11.070;2022-08-21T03:20:47;4.07;;;3.67;;
15358;SDS011;7779;49.596;11.070;2022-08-21T03:23:14;4.20;;;3.80;;
15358;SDS011;7779;49.596;11.070;2022-08-21T03:25:42;4.87;;;4.03;;
15358;SDS011;7779;49.596;11.070;2022-08-21T03:28:12;5.93;;;4.00;;
15358;SDS011;7779;49.596;11.070;2022-08-21T03:30:42;4.50;;;4.10;;
15358;SDS011;7779;49.596;11.070;2022-08-21T03:33:10;4.37;;;3.90;;
15358;SDS011;7779;49.596;11.070;2022-08-21T03:35:37;5.37;;;4.17;;
15358;SDS011;7779;49.596;11.070;2022-08-21T03:38:03;5.93;;;4.60;;
15358;SDS011;7779;49.596;11.070;2022-08-21T03:40:28;7.63;;;3.90;;
15358;SDS011;7779;49.596;11.070;2022-08-21T03:42:54;5.40;;;4.53;;
15358;SDS011;7779;49.596;11.070;2022-08-21T03:45:20;8.27;;;5.03;;
15358;SDS011;7779;49.596;11.070;2022-08-21T03:48:06;5.53;;;5.03;;
15358;SDS011;7779;49.596;11.070;2022-08-21T03:50:35;7.30;;;5.17;;
15358;SDS011;7779;49.596;11.070;2022-08-21T03:53:07;6.83;;;5.07;;
15358;SDS011;7779;49.596;11.070;2022-08-21T03:55:35;14.30;;;5.27;;
15358;SDS011;7779;49.596;11.070;2022-08-21T03:58:00;18.10;;;5.37;;
15358;SDS011;7779;49.596;11.070;2022-08-21T04:00:27;4.90;;;4.50;;
15358;SDS011;7779;49.596;11.070;2022-08-21T04:02:53;7.07;;;4.60;;
15358;SDS011;7779;49.596;11.070;2022-08-21T04:05:20;5.40;;;4.70;;
15358;SDS011;7779;49.596;11.070;2022-08-21T04:07:53;6.20;;;4.60;;
15358;SDS011;7779;49.596;11.070;2022-08-21T04:10:24;8.83;;;4.20;;
15358;SDS011;7779;49.596;11.070;2022-08-21T04:12:52;4.53;;;3.80;;
15358;SDS011;7779;49.596;11.070;2022-08-21T04:15:19;7.20;;;4.17;;
15358;SDS011;7779;49.596;11.070;2022-08-21T04:17:46;7.27;;;4.10;;
15358;SDS011;7779;49.596;11.070;2022-08-21T04:20:13;4.97;;;4.47;;
15358;SDS011;7779;49.596;11.070;2022-08-21T04:22:41;15.43;;;4.77;;
15358;SDS011;7779;49.596;11.070;2022-08-21T04:25:07;22.77;;;4.53;;
15358;SDS011;7779;49.596;11.070;2022-08-21T04:27:34;22.93;;;4.57;;
15358;SDS011;7779;49.596;11.070;2022-08-21T04:29:59;28.30;;;5.20;;
15358;SDS011;7779;49.596;11.070;2022-08-21T04:32:26;21.43;;;4.73;;
15358;SDS011;7779;49.596;11.070;2022-08-21T04:34:59;44.07;;;5.67;;
15358;SDS011;7779;49.596;11.070;2022-08-21T04:37:31;12.67;;;4.57;;
15358;SDS011;7779;49.596;11.070;2022-08-21T04:39:57;33.73;;;5.40;;
15358;SDS011;7779;49.596;11.070;2022-08-21T04:42:26;21.57;;;4.57;;
15358;SDS011;7779;49.596;11.070;2022-08-21T04:44:53;53.57;;;4.63;;
15358;SDS011;7779;49.596;11.070;2022-08-21T04:47:21;12.77;;;3.30;;
15358;SDS011;7779;49.596;11.070;2022-08-21T04:49:48;21.30;;;3.97;;
15358;SDS011;7779;49.596;11.070;2022-08-21T04:52:17;17.63;;;3.60;;
15358;SDS011;7779;49.596;11.070;2022-08-21T04:54:48;26.50;;;3.70;;
15358;SDS011;7779;49.596;11.070;2022-08-21T04:57:16;16.03;;;3.53;;
15358;SDS011;7779;49.596;11.070;2022-08-21T04:59:48;14.93;;;3.37;;
15358;SDS011;7779;49.596;11.070;2022-08-21T05:02:16;24.07;;;3.27;;
15358;SDS011;7779;49.596;11.070;2022-08-21T05:04:45;38.37;;;4.00;;
15358;SDS011;7779;49.596;11.070;2022-08-21T05:07:20;10.27;;;2.97;;
15358;SDS011;7779;49.596;11.070;2022-08-21T05:09:52;13.47;;;3.50;;
15358;SDS011;7779;49.596;11.070;2022-08-21T05:12:19;19.27;;;2.80;;
15358;SDS011;7779;49.596;11.070;2022-08-21T05:14:46;23.60;;;3.10;;
15358;SDS011;7779;49.596;11.070;2022-08-21T05:17:12;10.27;;;2.60;;
15358;SDS011;7779;49.596;11.070;2022-08-21T05:19:39;11.00;;;2.87;;
15358;SDS011;7779;49.596;11.070;2022-08-21T05:22:05;32.87;;;3.20;;
15358;SDS011;7779;49.596;11.070;2022-08-21T05:24:31;15.47;;;2.60;;
15358;SDS011;7779;49.596;11.070;2022-08-21T05:26:58;4.70;;;2.20;;
15358;SDS011;7779;49.596;11.070;2022-08-21T05:29:24;3.63;;;2.30;;
15358;SDS011;7779;49.596;11.070;2022-08-21T05:31:51;3.00;;;2.13;;
15358;SDS011;7779;49.596;11.070;2022-08-21T05:34:19;9.57;;;2.30;;
15358;SDS011;7779;49.596;11.070;2022-08-21T05:36:48;9.73;;;2.00;;
15358;SDS011;7779;49.596;11.070;2022-08-21T05:39:15;16.10;;;2.50;;
15358;SDS011;7779;49.596;11.070;2022-08-21T05:41:42;10.83;;;2.40;;
15358;SDS011;7779;49.596;11.070;2022-08-21T05:44:07;12.23;;;2.67;;
15358;SDS011;7779;49.596;11.070;2022-08-21T05:46:33;25.40;;;2.73;;
15358;SDS011;7779;49.596;11.070;2022-08-21T05:48:59;1.90;;;1.80;;
15358;SDS011;7779;49.596;11.070;2022-08-21T05:51:25;11.10;;;2.50;;
15358;SDS011;7779;49.596;11.070;2022-08-21T05:53:51;8.50;;;2.03;;
15358;SDS011;7779;49.596;11.070;2022-08-21T05:56:17;7.43;;;1.97;;
15358;SDS011;7779;49.596;11.070;2022-08-21T05:58:43;9.23;;;2.20;;
15358;SDS011;7779;49.596;11.070;2022-08-21T06:01:09;6.23;;;2.00;;
15358;SDS011;7779;49.596;11.070;2022-08-21T06:03:36;8.03;;;2.40;;
15358;SDS011;7779;49.596;11.070;2022-08-21T06:06:04;21.23;;;2.60;;
15358;SDS011;7779;49.596;11.070;2022-08-21T06:08:30;10.20;;;2.50;;
15358;SDS011;7779;49.596;11.070;2022-08-21T06:10:58;8.80;;;2.20;;
15358;SDS011;7779;49.596;11.070;2022-08-21T06:13:25;2.60;;;2.10;;
15358;SDS011;7779;49.596;11.070;2022-08-21T06:16:14;4.50;;;2.10;;
15358;SDS011;7779;49.596;11.070;2022-08-21T06:18:40;2.57;;;1.90;;
15358;SDS011;7779;49.596;11.070;2022-08-21T06:21:08;3.87;;;2.50;;
15358;SDS011;7779;49.596;11.070;2022-08-21T06:23:34;3.27;;;1.90;;
15358;SDS011;7779;49.596;11.070;2022-08-21T06:26:01;2.33;;;1.93;;
15358;SDS011;7779;49.596;11.070;2022-08-21T06:28:30;2.20;;;2.00;;
15358;SDS011;7779;49.596;11.070;2022-08-21T06:30:57;5.27;;;2.13;;
15358;SDS011;7779;49.596;11.070;2022-08-21T06:33:23;6.07;;;1.90;;
15358;SDS011;7779;49.596;11.070;2022-08-21T06:35:49;7.03;;;1.73;;
15358;SDS011;7779;49.596;11.070;2022-08-21T06:38:14;1.93;;;1.83;;
15358;SDS011;7779;49.596;11.070;2022-08-21T06:40:40;2.67;;;2.47;;
15358;SDS011;7779;49.596;11.070;2022-08-21T06:43:08;2.80;;;2.47;;
15358;SDS011;7779;49.596;11.070;2022-08-21T06:45:39;5.27;;;3.37;;
15358;SDS011;7779;49.596;11.070;2022-08-21T06:48:06;3.83;;;3.17;;
15358;SDS011;7779;49.596;11.070;2022-08-21T06:50:32;4.40;;;3.70;;
15358;SDS011;7779;49.596;11.070;2022-08-21T06:53:05;4.13;;;3.70;;
15358;SDS011;7779;49.596;11.070;2022-08-21T06:55:34;3.63;;;3.27;;
15358;SDS011;7779;49.596;11.070;2022-08-21T06:58:02;6.80;;;4.23;;
15358;SDS011;7779;49.596;11.070;2022-08-21T07:00:29;5.03;;;3.80;;
15358;SDS011;7779;49.596;11.070;2022-08-21T07:02:56;6.57;;;4.77;;
15358;SDS011;7779;49.596;11.070;2022-08-21T07:05:24;7.13;;;4.37;;
15358;SDS011;7779;49.596;11.070;2022-08-21T07:07:53;6.73;;;4.37;;
15358;SDS011;7779;49.596;11.070;2022-08-21T07:10:19;6.70;;;5.27;;
15358;SDS011;7779;49.596;11.070;2022-08-21T07:12:45;9.40;;;5.23;;
15358;SDS011;7779;49.596;11.070;2022-08-21T07:15:11;12.53;;;4.90;;
15358;SDS011;7779;49.596;11.070;2022-08-21T07:17:37;15.90;;;5.03;;
15358;SDS011;7779;49.596;11.070;2022-08-21T07:20:04;6.50;;;4.53;;
15358;SDS011;7779;49.596;11.070;2022-08-21T07:22:31;5.20;;;4.23;;
15358;SDS011;7779;49.596;11.070;2022-08-21T07:24:58;11.83;;;4.73;;
15358;SDS011;7779;49.596;11.070;2022-08-21T07:27:24;6.90;;;4.27;;
15358;SDS011;7779;49.596;11.070;2022-08-21T07:29:50;6.17;;;4.93;;
15358;SDS011;7779;49.596;11.070;2022-08-21T07:32:16;4.53;;;3.97;;
15358;SDS011;7779;49.596;11.070;2022-08-21T07:34:42;4.33;;;3.73;;
15358;SDS011;7779;49.596;11.070;2022-08-21T07:37:08;4.63;;;4.03;;
15358;SDS011;7779;49.596;11.070;2022-08-21T07:39:34;3.93;;;3.57;;
15358;SDS011;7779;49.596;11.070;2022-08-21T07:42:00;4.07;;;3.63;;
15358;SDS011;7779;49.596;11.070;2022-08-21T07:44:25;4.37;;;3.87;;
15358;SDS011;7779;49.596;11.070;2022-08-21T07:46:51;4.93;;;4.10;;
15358;SDS011;7779;49.596;11.070;2022-08-21T07:49:17;5.00;;;4.50;;
15358;SDS011;7779;49.596;11.070;2022-08-21T07:51:43;5.10;;;4.57;;
15358;SDS011;7779;49.596;11.070;2022-08-21T07:54:09;5.43;;;4.70;;
15358;SDS011;7779;49.596;11.070;2022-08-21T07:56:35;5.60;;;5.00;;
15358;SDS011;7779;49.596;11.070;2022-08-21T07:59:00;5.87;;;5.20;;
15358;SDS011;7779;49.596;11.070;2022-08-21T08:01:28;6.30;;;5.47;;
15358;SDS011;7779;49.596;11.070;2022-08-21T08:03:55;6.63;;;5.93;;
15358;SDS011;7779;49.596;11.070;2022-08-21T08:06:21;6.87;;;6.20;;
15358;SDS011;7779;49.596;11.070;2022-08-21T08:08:48;6.20;;;5.23;;
15358;SDS011;7779;49.596;11.070;2022-08-21T08:11:14;6.10;;;5.50;;
15358;SDS011;7779;49.596;11.070;2022-08-21T08:13:44;5.67;;;5.13;;
15358;SDS011;7779;49.596;11.070;2022-08-21T08:16:14;7.33;;;5.57;;
15358;SDS011;7779;49.596;11.070;2022-08-21T08:18:40;5.63;;;5.03;;
15358;SDS011;7779;49.596;11.070;2022-08-21T08:21:07;5.97;;;5.37;;
15358;SDS011;7779;49.596;11.070;2022-08-21T08:23:35;6.17;;;5.57;;
15358;SDS011;7779;49.596;11.070;2022-08-21T08:26:01;6.13;;;5.07;;
15358;SDS011;7779;49.596;11.070;2022-08-21T08:28:28;5.90;;;5.30;;
15358;SDS011;7779;49.596;11.070;2022-08-21T08:30:56;6.10;;;5.50;;
15358;SDS011;7779;49.596;11.070;2022-08-21T08:33:23;5.57;;;5.07;;
15358;SDS011;7779;49.596;11.070;2022-08-21T08:35:50;5.50;;;4.97;;
15358;SDS011;7779;49.596;11.070;2022-08-21T08:38:17;4.60;;;4.20;;
15358;SDS011;7779;49.596;11.070;2022-08-21T08:40:48;5.50;;;4.73;;
15358;SDS011;7779;49.596;11.070;2022-08-21T08:43:28;5.53;;;5.03;;
15358;SDS011;7779;49.596;11.070;2022-08-21T08:45:57;5.60;;;5.10;;
15358;SDS011;7779;49.596;11.070;2022-08-21T08:54:27;5.27;;;4.57;;
15358;SDS011;7779;49.596;11.070;2022-08-21T08:56:58;5.47;;;4.97;;
15358;SDS011;7779;49.596;11.070;2022-08-21T08:59:27;5.47;;;4.97;;
15358;SDS011;7779;49.596;11.070;2022-08-21T09:02:06;5.23;;;4.73;;
15358;SDS011;7779;49.596;11.070;2022-08-21T09:04:36;5.80;;;5.30;;
15358;SDS011;7779;49.596;11.070;2022-08-21T09:10:05;4.87;;;4.47;;
15358;SDS011;7779;49.596;11.070;2022-08-21T09:21:20;5.47;;;4.97;;
15358;SDS011;7779;49.596;11.070;2022-08-21T09:27:12;7.00;;;5.70;;
15358;SDS011;7779;49.596;11.070;2022-08-21T09:29:42;6.07;;;5.47;;
15358;SDS011;7779;49.596;11.070;2022-08-21T09:32:17;5.90;;;5.40;;
15358;SDS011;7779;49.596;11.070;2022-08-21T09:35:00;5.57;;;5.07;;
15358;SDS011;7779;49.596;11.070;2022-08-21T09:37:45;6.10;;;5.60;;
15358;SDS011;7779;49.596;11.070;2022-08-21T09:40:27;5.67;;;5.07;;
15358;SDS011;7779;49.596;11.070;2022-08-21T09:45:32;6.47;;;5.77;;
15358;SDS011;7779;49.596;11.070;2022-08-21T09:48:17;5.73;;;5.23;;
15358;SDS011;7779;49.596;11.070;2022-08-21T09:50:47;5.37;;;4.87;;
15358;SDS011;7779;49.596;11.070;2022-08-21T09:53:16;6.17;;;5.57;;
15358;SDS011;7779;49.596;11.070;2022-08-21T09:55:48;5.67;;;5.17;;
15358;SDS011;7779;49.596;11.070;2022-08-21T09:58:47;5.00;;;4.60;;
15358;SDS011;7779;49.596;11.070;2022-08-21T10:01:25;5.60;;;5.10;;
15358;SDS011;7779;49.596;11.070;2022-08-21T10:04:04;5.83;;;5.23;;
15358;SDS011;7779;49.596;11.070;2022-08-21T10:06:33;5.67;;;5.17;;
15358;SDS011;7779;49.596;11.070;2022-08-21T10:09:10;6.00;;;5.50;;
15358;SDS011;7779;49.596;11.070;2022-08-21T10:11:40;5.63;;;5.13;;
15358;SDS011;7779;49.596;11.070;2022-08-21T10:17:04;6.20;;;5.60;;
15358;SDS011;7779;49.596;11.070;2022-08-21T10:22:53;5.33;;;4.90;;
15358;SDS011;7779;49.596;11.070;2022-08-21T10:26:10;5.90;;;5.17;;
15358;SDS011;7779;49.596;11.070;2022-08-21T10:28:59;5.10;;;4.70;;
15358;SDS011;7779;49.596;11.070;2022-08-21T10:32:24;5.90;;;5.30;;
15358;SDS011;7779;49.596;11.070;2022-08-21T10:43:51;6.03;;;5.53;;
15358;SDS011;7779;49.596;11.070;2022-08-21T10:46:57;5.27;;;4.87;;
15358;SDS011;7779;49.596;11.070;2022-08-21T10:55:18;5.13;;;4.73;;
15358;SDS011;7779;49.596;11.070;2022-08-21T10:58:03;5.57;;;5.07;;
15358;SDS011;7779;49.596;11.070;2022-08-21T11:00:49;5.10;;;4.70;;
15358;SDS011;7779;49.596;11.070;2022-08-21T11:03:42;6.03;;;5.53;;
15358;SDS011;7779;49.596;11.070;2022-08-21T11:06:25;5.33;;;4.83;;
15358;SDS011;7779;49.596;11.070;2022-08-21T11:08:58;5.60;;;5.10;;
15358;SDS011;7779;49.596;11.070;2022-08-21T11:12:03;5.93;;;5.33;;
15358;SDS011;7779;49.596;11.070;2022-08-21T11:15:18;5.47;;;4.97;;
15358;SDS011;7779;49.596;11.070;2022-08-21T11:27:05;4.43;;;4.03;;
15358;SDS011;7779;49.596;11.070;2022-08-21T11:29:54;4.70;;;4.30;;
15358;SDS011;7779;49.596;11.070;2022-08-21T11:38:39;4.57;;;4.17;;
15358;SDS011;7779;49.596;11.070;2022-08-21T11:44:08;4.37;;;3.97;;
15358;SDS011;7779;49.596;11.070;2022-08-21T11:46:59;4.20;;;3.90;;
15358;SDS011;7779;49.596;11.070;2022-08-21T11:52:42;3.90;;;3.60;;
15358;SDS011;7779;49.596;11.070;2022-08-21T11:55:19;4.10;;;3.70;;
15358;SDS011;7779;49.596;11.070;2022-08-21T12:00:49;3.47;;;3.17;;
15358;SDS011;7779;49.596;11.070;2022-08-21T12:06:41;3.60;;;3.23;;
15358;SDS011;7779;49.596;11.070;2022-08-21T12:09:28;3.57;;;3.27;;
15358;SDS011;7779;49.596;11.070;2022-08-21T12:12:12;3.73;;;3.47;;
15358;SDS011;7779;49.596;11.070;2022-08-21T12:24:15;3.20;;;3.00;;
15358;SDS011;7779;49.596;11.070;2022-08-21T12:29:27;4.23;;;3.20;;
15358;SDS011;7779;49.596;11.070;2022-08-21T12:42:53;3.03;;;2.83;;
15358;SDS011;7779;49.596;11.070;2022-08-21T12:45:33;2.80;;;2.60;;
15358;SDS011;7779;49.596;11.070;2022-08-21T12:51:18;2.50;;;2.30;;
15358;SDS011;7779;49.596;11.070;2022-08-21T12:53:55;2.77;;;2.57;;
15358;SDS011;7779;49.596;11.070;2022-08-21T12:56:24;3.00;;;2.80;;
15358;SDS011;7779;49.596;11.070;2022-08-21T12:59:07;3.00;;;2.80;;
15358;SDS011;7779;49.596;11.070;2022-08-21T13:01:47;3.30;;;3.00;;
15358;SDS011;7779;49.596;11.070;2022-08-21T13:04:22;2.90;;;2.70;;
15358;SDS011;7779;49.596;11.070;2022-08-21T13:07:09;3.07;;;2.80;;
15358;SDS011;7779;49.596;11.070;2022-08-21T13:10:22;2.70;;;2.50;;
15358;SDS011;7779;49.596;11.070;2022-08-21T13:12:39;2.83;;;2.60;;
15358;SDS011;7779;49.596;11.070;2022-08-21T13:15:07;2.73;;;2.53;;
15358;SDS011;7779;49.596;11.070;2022-08-21T13:17:35;2.50;;;2.30;;
15358;SDS011;7779;49.596;11.070;2022-08-21T13:22:43;2.73;;;2.50;;
15358;SDS011;7779;49.596;11.070;2022-08-21T13:25:14;2.80;;;2.60;;
15358;SDS011;7779;49.596;11.070;2022-08-21T13:27:44;2.97;;;2.77;;
15358;SDS011;7779;49.596;11.070;2022-08-21T13:30:24;2.40;;;2.30;;
15358;SDS011;7779;49.596;11.070;2022-08-21T13:32:51;3.00;;;2.70;;
15358;SDS011;7779;49.596;11.070;2022-08-21T13:35:28;3.30;;;2.70;;
15358;SDS011;7779;49.596;11.070;2022-08-21T13:38:17;4.03;;;2.80;;
15358;SDS011;7779;49.596;11.070;2022-08-21T13:40:50;2.70;;;2.50;;
15358;SDS011;7779;49.596;11.070;2022-08-21T13:43:25;2.70;;;2.50;;
15358;SDS011;7779;49.596;11.070;2022-08-21T13:45:57;2.73;;;2.53;;
15358;SDS011;7779;49.596;11.070;2022-08-21T13:48:26;2.73;;;2.53;;
15358;SDS011;7779;49.596;11.070;2022-08-21T13:50:58;3.20;;;2.90;;
15358;SDS011;7779;49.596;11.070;2022-08-21T13:56:21;3.00;;;2.70;;
15358;SDS011;7779;49.596;11.070;2022-08-21T13:58:54;3.17;;;2.87;;
15358;SDS011;7779;49.596;11.070;2022-08-21T14:01:27;3.23;;;3.03;;
15358;SDS011;7779;49.596;11.070;2022-08-21T14:04:06;2.70;;;2.50;;
15358;SDS011;7779;49.596;11.070;2022-08-21T14:06:48;2.30;;;2.20;;
15358;SDS011;7779;49.596;11.070;2022-08-21T14:12:01;2.40;;;2.20;;
15358;SDS011;7779;49.596;11.070;2022-08-21T14:14:39;2.17;;;2.07;;
15358;SDS011;7779;49.596;11.070;2022-08-21T14:17:07;2.20;;;2.10;;
15358;SDS011;7779;49.596;11.070;2022-08-21T14:19:43;2.60;;;2.40;;
15358;SDS011;7779;49.596;11.070;2022-08-21T14:25:13;2.30;;;2.10;;
15358;SDS011;7779;49.596;11.070;2022-08-21T14:27:44;1.97;;;1.83;;
15358;SDS011;7779;49.596;11.070;2022-08-21T14:30:30;2.27;;;2.13;;
15358;SDS011;7779;49.596;11.070;2022-08-21T14:33:01;2.40;;;2.20;;
15358;SDS011;7779;49.596;11.070;2022-08-21T14:35:29;2.00;;;1.90;;
15358;SDS011;7779;49.596;11.070;2022-08-21T14:37:56;2.10;;;1.90;;
15358;SDS011;7779;49.596;11.070;2022-08-21T14:40:23;2.20;;;2.10;;
15358;SDS011;7779;49.596;11.070;2022-08-21T14:42:50;2.10;;;1.90;;
15358;SDS011;7779;49.596;11.070;2022-08-21T14:45:18;2.10;;;1.90;;
15358;SDS011;7779;49.596;11.070;2022-08-21T14:47:56;1.97;;;1.80;;
15358;SDS011;7779;49.596;11.070;2022-08-21T14:50:24;2.10;;;2.00;;
15358;SDS011;7779;49.596;11.070;2022-08-21T14:52:50;2.10;;;2.00;;
15358;SDS011;7779;49.596;11.070;2022-08-21T14:55:17;2.20;;;2.00;;
15358;SDS011;7779;49.596;11.070;2022-08-21T14:57:47;1.70;;;1.60;;
15358;SDS011;7779;49.596;11.070;2022-08-21T15:00:17;1.80;;;1.70;;
15358;SDS011;7779;49.596;11.070;2022-08-21T15:02:49;1.97;;;1.87;;
15358;SDS011;7779;49.596;11.070;2022-08-21T15:05:16;2.50;;;2.30;;
15358;SDS011;7779;49.596;11.070;2022-08-21T15:07:43;2.07;;;1.90;;
15358;SDS011;7779;49.596;11.070;2022-08-21T15:10:12;2.13;;;2.03;;
15358;SDS011;7779;49.596;11.070;2022-08-21T15:12:38;1.90;;;1.80;;
15358;SDS011;7779;49.596;11.070;2022-08-21T15:15:05;1.80;;;1.70;;
15358;SDS011;7779;49.596;11.070;2022-08-21T15:17:33;1.80;;;1.70;;
15358;SDS011;7779;49.596;11.070;2022-08-21T15:19:59;1.90;;;1.80;;
15358;SDS011;7779;49.596;11.070;2022-08-21T15:22:25;2.17;;;1.97;;
15358;SDS011;7779;49.596;11.070;2022-08-21T15:24:51;2.10;;;1.87;;
15358;SDS011;7779;49.596;11.070;2022-08-21T15:27:17;1.87;;;1.77;;
15358;SDS011;7779;49.596;11.070;2022-08-21T15:29:44;1.93;;;1.73;;
15358;SDS011;7779;49.596;11.070;2022-08-21T15:34:50;2.67;;;2.00;;
15358;SDS011;7779;49.596;11.070;2022-08-21T15:37:18;2.10;;;1.90;;
15358;SDS011;7779;49.596;11.070;2022-08-21T15:39:45;2.03;;;1.93;;
15358;SDS011;7779;49.596;11.070;2022-08-21T15:42:11;1.80;;;1.70;;
15358;SDS011;7779;49.596;11.070;2022-08-21T15:44:39;2.20;;;2.00;;
15358;SDS011;7779;49.596;11.070;2022-08-21T15:47:18;1.97;;;1.70;;
15358;SDS011;7779;49.596;11.070;2022-08-21T15:49:49;2.00;;;1.80;;
15358;SDS011;7779;49.596;11.070;2022-08-21T15:52:16;2.20;;;2.00;;
15358;SDS011;7779;49.596;11.070;2022-08-21T15:54:45;1.90;;;1.80;;
15358;SDS011;7779;49.596;11.070;2022-08-21T15:57:12;1.73;;;1.63;;
15358;SDS011;7779;49.596;11.070;2022-08-21T15:59:44;2.23;;;2.03;;
15358;SDS011;7779;49.596;11.070;2022-08-21T16:02:15;2.03;;;1.83;;
15358;SDS011;7779;49.596;11.070;2022-08-21T16:04:55;1.90;;;1.80;;
15358;SDS011;7779;49.596;11.070;2022-08-21T16:07:21;2.40;;;2.20;;
15358;SDS011;7779;49.596;11.070;2022-08-21T16:09:48;2.40;;;2.13;;
15358;SDS011;7779;49.596;11.070;2022-08-21T16:12:27;2.10;;;1.90;;
15358;SDS011;7779;49.596;11.070;2022-08-21T16:14:58;2.10;;;1.90;;
15358;SDS011;7779;49.596;11.070;2022-08-21T16:17:29;3.20;;;2.00;;
15358;SDS011;7779;49.596;11.070;2022-08-21T16:19:59;1.90;;;1.80;;
15358;SDS011;7779;49.596;11.070;2022-08-21T16:22:29;2.00;;;1.90;;
15358;SDS011;7779;49.596;11.070;2022-08-21T16:24:55;1.80;;;1.70;;
15358;SDS011;7779;49.596;11.070;2022-08-21T16:27:21;2.20;;;1.87;;
15358;SDS011;7779;49.596;11.070;2022-08-21T16:29:47;2.23;;;2.10;;
15358;SDS011;7779;49.596;11.070;2022-08-21T16:32:13;2.03;;;1.83;;
15358;SDS011;7779;49.596;11.070;2022-08-21T16:34:42;2.43;;;1.83;;
15358;SDS011;7779;49.596;11.070;2022-08-21T16:37:15;2.00;;;1.80;;
15358;SDS011;7779;49.596;11.070;2022-08-21T16:39:42;1.83;;;1.73;;
15358;SDS011;7779;49.596;11.070;2022-08-21T16:42:12;1.90;;;1.80;;
15358;SDS011;7779;49.596;11.070;2022-08-21T16:44:43;1.90;;;1.70;;
15358;SDS011;7779;49.596;11.070;2022-08-21T16:47:09;2.10;;;2.00;;
15358;SDS011;7779;49.596;11.070;2022-08-21T16:49:35;2.00;;;1.80;;
15358;SDS011;7779;49.596;11.070;2022-08-21T16:52:03;1.77;;;1.67;;
15358;SDS011;7779;49.596;11.070;2022-08-21T16:54:30;2.00;;;1.90;;
15358;SDS011;7779;49.596;11.070;2022-08-21T16:56:56;2.73;;;1.90;;
15358;SDS011;7779;49.596;11.070;2022-08-21T16:59:24;1.80;;;1.70;;